Linden, Indiana
Current Conditions -  °F | °C
As of 7:54 AM on Sunday 23 Nov 2014 (Local Time) from KLAF Reporting Station
Overcast Overcast  
Wind Chill: 46°   Ceiling: 11000
Heat Index: 49°   Visibility: 10mi
Dew Point: 43°   Wind: 7mph
Humidity: 80%   Direction: 170°S
Pressure: 29.85"   Gusts: NA
Location:  40.19°N, 86.9°W
Report Text: KLAF 231254Z 17006KT 10SM OVC110 09/06 A2985 RMK AO2 SLP107 T00940061
Loading
Personal Weather Stations






























Interactive Weather Map New forecast layout! Learn more

10-Day Weather Forecast

Advertisements
Track Severe Weather on mobile